ADDS METAR Data INFO
IDs: Format: Raw Decoded Include TAF

Data at: 2053 UTC 24 Jun 2018

KBKD 242035Z AUTO 19017G25KT 10SM CLR 37/15 A2974 RMK AO2 T03740151
KBKD 242015Z AUTO 21017G24KT 10SM CLR 39/16 A2974 RMK AO2 T03850158
KBKD 241955Z AUTO 19016G26KT 10SM CLR 39/16 A2974 RMK AO2 T03860163
KBKD 241935Z AUTO 19014G26KT 7SM CLR 38/16 A2975 RMK AO2 T03820160
KBKD 241915Z AUTO 17017G27KT 10SM CLR 38/17 A2975 RMK AO2 T03760170
KBKD 241855Z AUTO 17019G25KT 7SM CLR 37/17 A2976 RMK AO2 T03700169
KBKD 241835Z AUTO 17019G25KT 7SM CLR 37/17 A2977 RMK AO2 T03660168
KBKD 241815Z AUTO 19017G29KT 10SM CLR 36/17 A2978 RMK AO2 T03630166
KBKD 241755Z AUTO 19014G23KT 7SM CLR 36/18 A2979 RMK AO2 T03550175 10355 20271
KBKD 241735Z AUTO 17015G24KT 7SM CLR 35/19 A2980 RMK AO2 T03450185
KBKD 241715Z AUTO 15015G20KT 10SM CLR 34/19 A2981 RMK AO2 T03390189
KBKD 241655Z AUTO 18011G24KT 10SM CLR 33/19 A2982 RMK AO2 T03320189
KBKD 241635Z AUTO 16013G24KT 7SM CLR 33/19 A2982 RMK AO2 T03300189
KBKD 241615Z AUTO 18012G23KT 5SM HZ CLR 32/19 A2982 RMK AO2 T03240192
KBKD 241555Z AUTO 19013G20KT 5SM HZ CLR 32/19 A2982 RMK AO2 T03180190
KBKD 241535Z AUTO 17014G22KT 5SM HZ CLR 31/19 A2981 RMK AO2 T03100189
KBKD 241515Z AUTO 18012G20KT 10SM CLR 31/19 A2981 RMK AO2 T03110191
KBKD 241455Z AUTO 20014G22KT 7SM CLR 31/19 A2982 RMK AO2 T03060191
KBKD 241435Z AUTO 20014G22KT 10SM SCT036 31/20 A2981 RMK AO2 T03050195
KBKD 241415Z AUTO 19010G17KT 7SM SCT034 30/20 A2983 RMK AO2 T02980196
KBKD 241355Z AUTO 19012G15KT 10SM SCT032 29/20 A2982 RMK AO2 T02930201
KBKD 241335Z AUTO 20011G16KT 5SM HZ SCT029 29/20 A2981 RMK AO2 T02870202
KBKD 241315Z AUTO 20008G15KT 3SM HZ CLR 29/21 A2980 RMK AO2 T02850205
KBKD 241255Z AUTO 19010G19KT 5SM HZ CLR 28/21 A2978 RMK AO2 T02780207
KBKD 241235Z AUTO 20011G22KT 5SM HZ CLR 27/21 A2976 RMK AO2 T02740210
KBKD 241215Z AUTO 19012G17KT 5SM HZ CLR 27/22 A2974 RMK AO2 T02730215
KBKD 241155Z AUTO 19015G22KT 5SM HZ CLR 27/22 A2973 RMK AO2 T02710216 10375 20270
KBKD 241135Z AUTO 19018G22KT 5SM HZ CLR 27/22 A2973 RMK AO2 T02700216
KBKD 241115Z AUTO 20015G23KT 7SM CLR 27/22 A2973 RMK AO2 T02720216
KBKD 241055Z AUTO 19017G24KT 7SM CLR 28/22 A2972 RMK AO2 T02750217
KBKD 241035Z AUTO 19017G24KT 10SM CLR 28/22 A2972 RMK AO2 T02760215
KBKD 241015Z AUTO 19017G25KT 10SM CLR 28/21 A2972 RMK AO2 T02770212
KBKD 240955Z AUTO 19014G25KT 7SM CLR 28/21 A2971 RMK AO2 T02810207
KBKD 240935Z AUTO 19016G21KT 7SM CLR 28/20 A2971 RMK AO2 T02830196
KBKD 240915Z AUTO 20017G28KT 10SM CLR 29/18 A2970 RMK AO2 T02930179
KBKD 240855Z AUTO 21012G22KT 7SM CLR 32/10 A2970 RMK AO2 T03160102
KBKD 240835Z AUTO 21015G27KT 10SM CLR 33/09 A2968 RMK AO2 T03260086
KBKD 240815Z AUTO 16015G21KT 7SM CLR 35/06 A2963 RMK AO2 T03450061
KBKD 240755Z AUTO 16011G20KT 7SM CLR 35/06 A2963 RMK AO2 T03510056
KBKD 240735Z AUTO 16012G26KT 7SM CLR 35/06 A2963 RMK AO2 T03520055
KBKD 240715Z AUTO 16019G27KT 7SM CLR 35/06 A2964 RMK AO2 T03530057
KBKD 240655Z AUTO 17022G33KT 7SM CLR 36/06 A2964 RMK AO2 T03580057
KBKD 240635Z AUTO 16024G37KT 10SM CLR 37/05 A2964 RMK AO2 LTG DSNT E THRU S T03730049
KBKD 240615Z AUTO 19015G33KT 10SM CLR 36/06 A2965 RMK AO2 LTG DSNT E AND S T03580064
KBKD 240555Z AUTO 14026G41KT 10SM CLR 33/11 A2962 RMK AO2 LTG DSNT NE T03300111 10386 20296 403910276
KBKD 240535Z AUTO 10SM VCTS CLR 33/10 A2971 RMK AO2 LTG DSNT NE AND E T03280099
KBKD 240515Z AUTO 16005G39KT 10SM CLR 30/14 A2968 RMK AO2 LTG DSNT NE AND S T02960135
KBKD 240455Z AUTO 10SM SCT090 SCT120 30/13 A2971 RMK AO2 LTG DSNT S AND W T02970133
KBKD 240435Z AUTO 14015G19KT 10SM CLR 31/13 A2975 RMK AO2 LTG DSNT ALQDS T03050133
KBKD 240415Z AUTO 24025G33KT 10SM VCTS SCT060 SCT075 33/17 A2977 RMK AO2 LTG DSNT ALQDS T03300174
KBKD 240355Z AUTO 7SM TS CLR 33/19 A2968 RMK AO2 LTG DSNT ALQDS T03340185
KBKD 240335Z AUTO 16020KT 10SM CLR 33/19 A2968 RMK AO2 LTG DSNT SW THRU N T03330185
KBKD 240315Z AUTO 15018G33KT 10SM CLR 34/18 A2965 RMK AO2 LTG DSNT SW THRU N T03380181
KBKD 240255Z AUTO 15019G29KT 10SM VCTS CLR 34/18 A2966 RMK AO2 LTG DSNT SW THRU N T03400178
KBKD 240235Z AUTO 16019G26KT 10SM CLR 34/18 A2967 RMK AO2 LTG DSNT SW AND W T03430175
KBKD 240215Z AUTO 15016G22KT 10SM CLR 35/17 A2967 RMK AO2 T03460172
KBKD 240155Z AUTO 14014G23KT 10SM SCT110 35/17 A2966 RMK AO2 LTG DSNT W T03510170
KBKD 240135Z AUTO 14016G22KT 7SM CLR 36/17 A2965 RMK AO2 LTG DSNT W T03550167
KBKD 240115Z AUTO 14015G23KT 10SM CLR 36/17 A2966 RMK AO2 LTG DSNT W T03600165
KBKD 240055Z AUTO 14014G19KT 10SM CLR 37/17 A2965 RMK AO2 LTG DSNT W T03660165
KBKD 240035Z AUTO 14012G21KT 10SM CLR 37/17 A2965 RMK AO2 LTG DSNT W T03700166
KBKD 240015Z AUTO 15012G19KT 10SM CLR 38/17 A2966 RMK AO2 T03760167
KBKD 232355Z AUTO 14015KT 10SM CLR 39/17 A2966 RMK AO2 T03860170 10391 20340
KBKD 232335Z AUTO 16013G18KT 10SM SCT090 SCT100 39/17 A2967 RMK AO2 T03880165
KBKD 232315Z AUTO 17007KT 10SM SCT080 BKN100 38/17 A2968 RMK AO2 T03810165
KBKD 232255Z AUTO 16013G17KT 10SM BKN090 BKN100 38/17 A2968 RMK AO2 T03830167
KBKD 232235Z AUTO 18009G25KT 10SM SCT090 38/17 A2969 RMK AO2 T03810169
KBKD 232215Z AUTO 19010G17KT 10SM SCT075 SCT090 39/17 A2969 RMK AO2 T03890166
KBKD 232155Z AUTO 16008G17KT 10SM SCT075 SCT090 38/17 A2970 RMK AO2 T03810169
KBKD 232135Z AUTO 20012G20KT 150V210 10SM SCT080 39/18 A2970 RMK AO2 T03860175
KBKD 232115Z AUTO 16013G17KT 10SM BKN080 39/18 A2971 RMK AO2 T03850175
KBKD 232055Z AUTO 15013G17KT 10SM CLR 38/17 A2971 RMK AO2 T03800172
KBKD 232035Z AUTO 17014G19KT 10SM CLR 38/17 A2972 RMK AO2 T03780166
KBKD 232015Z AUTO 18014G20KT 10SM SCT070 37/17 A2972 RMK AO2 T03730167
KBKD 231955Z AUTO 16013G21KT 10SM CLR 37/17 A2973 RMK AO2 T03720166
KBKD 231935Z AUTO 17016G24KT 10SM SCT065 37/17 A2974 RMK AO2 T03730173
KBKD 231915Z AUTO 14012G19KT 10SM SCT060 37/18 A2974 RMK AO2 T03680180
KBKD 231855Z AUTO 15012G20KT 10SM BKN060 36/18 A2975 RMK AO2 T03580177
KBKD 231835Z AUTO 16008G21KT 7SM BKN050 35/18 A2976 RMK AO2 T03540182
KBKD 231815Z AUTO 17010G17KT 7SM BKN050 34/19 A2978 RMK AO2 T03440188
KBKD 231755Z AUTO 15015G19KT 5SM HZ BKN050 34/19 A2979 RMK AO2 T03440193 10344 20277
KBKD 231735Z AUTO 16010G17KT 10SM BKN045 BKN050 34/20 A2980 RMK AO2 T03370197
KBKD 231715Z AUTO 16013G17KT 5SM HZ BKN047 OVC050 33/20 A2981 RMK AO2 T03300197
KBKD 231655Z AUTO 17011G17KT 7SM SCT042 BKN048 OVC055 32/20 A2982 RMK AO2 T03200196
KBKD 231635Z AUTO 17011G16KT 7SM BKN038 OVC046 32/20 A2983 RMK AO2 T03160201
KBKD 231615Z AUTO 15010KT 4SM HZ BKN035 BKN043 OVC049 31/20 A2983 RMK AO2 T03110202
KBKD 231555Z AUTO 15010KT 5SM HZ BKN033 OVC041 31/21 A2983 RMK AO2 T03060209
KBKD 231535Z AUTO 14009G14KT 7SM BKN033 OVC039 31/21 A2983 RMK AO2 T03050212
KBKD 231515Z AUTO 15010G15KT 7SM BKN031 OVC040 30/21 A2983 RMK AO2 T03000212
KBKD 231455Z AUTO 14009KT 5SM HZ BKN031 BKN037 OVC043 30/21 A2983 RMK AO2 T03000212
KBKD 231435Z AUTO 14010KT 4SM HZ BKN029 BKN035 OVC043 30/21 A2983 RMK AO2 T02950214
KBKD 231415Z AUTO 13012KT 5SM HZ SCT030 OVC041 30/21 A2984 RMK AO2 T02950212
KBKD 231355Z AUTO 13009KT 5SM HZ BKN039 29/21 A2983 RMK AO2 T02910210
KBKD 231335Z AUTO 14008KT 5SM HZ BKN037 29/21 A2983 RMK AO2 T02920207
KBKD 231315Z AUTO 14009KT 7SM CLR 29/21 A2982 RMK AO2 T02890205
KBKD 231255Z AUTO 14008KT 7SM CLR 29/20 A2982 RMK AO2 LTG DSNT N T02860203
KBKD 231235Z AUTO 15009KT 5SM HZ BKN040 28/20 A2982 RMK AO2 T02830200
KBKD 231215Z AUTO 15007KT 5SM HZ SCT038 28/20 A2982 RMK AO2 T02800198
KBKD 231155Z AUTO 14007KT 5SM HZ SCT040 28/20 A2981 RMK AO2 T02770196 10321 20276
KBKD 231135Z AUTO 12005KT 5SM HZ BKN040 28/20 A2981 RMK AO2 T02770195
KBKD 231115Z AUTO 15008KT 7SM CLR 28/19 A2979 RMK AO2 LTG DSNT N T02760192
KBKD 231055Z AUTO 15009KT 7SM CLR 28/19 A2979 RMK AO2 LTG DSNT N T02790191
KBKD 231035Z AUTO 11006KT 7SM CLR 28/19 A2980 RMK AO2 T02810190
KBKD 231015Z AUTO 13006KT 7SM CLR 29/19 A2979 RMK AO2 T02850190
KBKD 230955Z AUTO 13007KT 7SM CLR 28/19 A2978 RMK AO2 T02820187
KBKD 230935Z AUTO 12007KT 7SM CLR 29/19 A2978 RMK AO2 T02870185
KBKD 230915Z AUTO 11007KT 10SM CLR 29/18 A2978 RMK AO2 T02920182
KBKD 230855Z AUTO 13009KT 10SM CLR 30/18 A2976 RMK AO2 T02960180